sensor_id;sensor_type;location;lat;lon;timestamp;temperature;humidity
20654;DHT22;21083;50.898;4.902;2023-04-25T00:00:57;9.60;99.90
20654;DHT22;21083;50.898;4.902;2023-04-25T00:03:24;9.60;99.90
20654;DHT22;21083;50.898;4.902;2023-04-25T00:05:51;9.70;99.90
20654;DHT22;21083;50.898;4.902;2023-04-25T00:08:18;9.70;99.90
20654;DHT22;21083;50.898;4.902;2023-04-25T00:10:45;9.70;99.90
20654;DHT22;21083;50.898;4.902;2023-04-25T00:13:14;9.70;99.90
20654;DHT22;21083;50.898;4.902;2023-04-25T00:15:44;9.80;99.90
20654;DHT22;21083;50.898;4.902;2023-04-25T00:18:13;9.70;99.90
20654;DHT22;21083;50.898;4.902;2023-04-25T00:20:41;9.70;99.90
20654;DHT22;21083;50.898;4.902;2023-04-25T00:23:12;9.70;99.90
20654;DHT22;21083;50.898;4.902;2023-04-25T00:25:43;9.70;99.90
20654;DHT22;21083;50.898;4.902;2023-04-25T00:28:10;9.60;99.90
20654;DHT22;21083;50.898;4.902;2023-04-25T00:30:37;9.60;99.90
20654;DHT22;21083;50.898;4.902;2023-04-25T00:33:05;9.70;99.90
20654;DHT22;21083;50.898;4.902;2023-04-25T00:35:33;9.70;99.90
20654;DHT22;21083;50.898;4.902;2023-04-25T00:38:00;9.60;99.90
20654;DHT22;21083;50.898;4.902;2023-04-25T00:40:27;9.70;99.90
20654;DHT22;21083;50.898;4.902;2023-04-25T00:42:55;9.70;99.90
20654;DHT22;21083;50.898;4.902;2023-04-25T00:45:22;9.80;99.90
20654;DHT22;21083;50.898;4.902;2023-04-25T00:47:54;9.80;99.90
20654;DHT22;21083;50.898;4.902;2023-04-25T00:50:23;9.80;99.90
20654;DHT22;21083;50.898;4.902;2023-04-25T00:52:50;9.80;99.90
20654;DHT22;21083;50.898;4.902;2023-04-25T00:55:17;9.80;99.90
20654;DHT22;21083;50.898;4.902;2023-04-25T00:57:44;9.70;99.90
20654;DHT22;21083;50.898;4.902;2023-04-25T01:00:13;9.70;99.90
20654;DHT22;21083;50.898;4.902;2023-04-25T01:02:40;9.70;99.90
20654;DHT22;21083;50.898;4.902;2023-04-25T01:05:08;9.70;99.90
20654;DHT22;21083;50.898;4.902;2023-04-25T01:07:37;9.70;99.90
20654;DHT22;21083;50.898;4.902;2023-04-25T01:10:05;9.80;99.90
20654;DHT22;21083;50.898;4.902;2023-04-25T01:12:33;9.70;99.90
20654;DHT22;21083;50.898;4.902;2023-04-25T01:15:00;9.70;99.90
20654;DHT22;21083;50.898;4.902;2023-04-25T01:17:27;9.70;99.90
20654;DHT22;21083;50.898;4.902;2023-04-25T01:19:54;9.70;99.90
20654;DHT22;21083;50.898;4.902;2023-04-25T01:22:23;9.70;99.90
20654;DHT22;21083;50.898;4.902;2023-04-25T01:24:50;9.70;99.90
20654;DHT22;21083;50.898;4.902;2023-04-25T01:27:18;9.60;99.90
20654;DHT22;21083;50.898;4.902;2023-04-25T01:29:46;9.60;99.90
20654;DHT22;21083;50.898;4.902;2023-04-25T01:32:13;9.60;99.90
20654;DHT22;21083;50.898;4.902;2023-04-25T01:34:40;9.60;99.90
20654;DHT22;21083;50.898;4.902;2023-04-25T01:37:08;9.60;99.90
20654;DHT22;21083;50.898;4.902;2023-04-25T01:39:36;9.40;99.90
20654;DHT22;21083;50.898;4.902;2023-04-25T01:42:03;9.40;99.90
20654;DHT22;21083;50.898;4.902;2023-04-25T01:44:30;9.50;99.90
20654;DHT22;21083;50.898;4.902;2023-04-25T01:46:57;9.40;99.90
20654;DHT22;21083;50.898;4.902;2023-04-25T01:49:24;9.30;99.90
20654;DHT22;21083;50.898;4.902;2023-04-25T01:51:51;9.40;99.90
20654;DHT22;21083;50.898;4.902;2023-04-25T01:54:19;9.40;99.90
20654;DHT22;21083;50.898;4.902;2023-04-25T01:56:51;9.40;99.90
20654;DHT22;21083;50.898;4.902;2023-04-25T01:59:18;9.40;99.90
20654;DHT22;21083;50.898;4.902;2023-04-25T02:01:47;9.50;99.90
20654;DHT22;21083;50.898;4.902;2023-04-25T02:04:14;9.50;99.90
20654;DHT22;21083;50.898;4.902;2023-04-25T02:06:41;9.50;99.90
20654;DHT22;21083;50.898;4.902;2023-04-25T02:09:08;9.40;99.90
20654;DHT22;21083;50.898;4.902;2023-04-25T02:11:35;9.50;99.90
20654;DHT22;21083;50.898;4.902;2023-04-25T02:14:03;9.40;99.90
20654;DHT22;21083;50.898;4.902;2023-04-25T02:16:30;9.40;99.90
20654;DHT22;21083;50.898;4.902;2023-04-25T02:18:57;9.40;99.90
20654;DHT22;21083;50.898;4.902;2023-04-25T02:21:24;9.40;99.90
20654;DHT22;21083;50.898;4.902;2023-04-25T02:23:52;9.30;99.90
20654;DHT22;21083;50.898;4.902;2023-04-25T02:26:19;9.40;99.90
20654;DHT22;21083;50.898;4.902;2023-04-25T02:28:49;9.40;99.90
20654;DHT22;21083;50.898;4.902;2023-04-25T02:31:18;9.40;99.90
20654;DHT22;21083;50.898;4.902;2023-04-25T02:33:45;9.30;99.90
20654;DHT22;21083;50.898;4.902;2023-04-25T02:36:12;9.30;99.90
20654;DHT22;21083;50.898;4.902;2023-04-25T02:38:39;9.40;99.90
20654;DHT22;21083;50.898;4.902;2023-04-25T02:41:06;9.40;99.90
20654;DHT22;21083;50.898;4.902;2023-04-25T02:43:33;9.40;99.90
20654;DHT22;21083;50.898;4.902;2023-04-25T02:46:00;9.40;99.90
20654;DHT22;21083;50.898;4.902;2023-04-25T02:48:28;9.30;99.90
20654;DHT22;21083;50.898;4.902;2023-04-25T02:50:55;9.30;99.90
20654;DHT22;21083;50.898;4.902;2023-04-25T02:53:22;9.40;99.90
20654;DHT22;21083;50.898;4.902;2023-04-25T02:55:49;9.40;99.90
20654;DHT22;21083;50.898;4.902;2023-04-25T02:58:18;9.30;99.90
20654;DHT22;21083;50.898;4.902;2023-04-25T03:00:45;9.30;99.90
20654;DHT22;21083;50.898;4.902;2023-04-25T03:03:12;9.30;99.90
20654;DHT22;21083;50.898;4.902;2023-04-25T03:05:40;9.30;99.90
20654;DHT22;21083;50.898;4.902;2023-04-25T03:08:07;9.30;99.90
20654;DHT22;21083;50.898;4.902;2023-04-25T03:10:34;9.30;99.90
20654;DHT22;21083;50.898;4.902;2023-04-25T03:13:01;9.30;99.90
20654;DHT22;21083;50.898;4.902;2023-04-25T03:15:28;9.30;99.90
20654;DHT22;21083;50.898;4.902;2023-04-25T03:17:56;9.30;99.90
20654;DHT22;21083;50.898;4.902;2023-04-25T03:20:23;9.30;99.90
20654;DHT22;21083;50.898;4.902;2023-04-25T03:22:52;9.30;99.90
20654;DHT22;21083;50.898;4.902;2023-04-25T03:25:19;9.30;99.90
20654;DHT22;21083;50.898;4.902;2023-04-25T03:27:46;9.30;99.90
20654;DHT22;21083;50.898;4.902;2023-04-25T03:30:13;9.30;99.90
20654;DHT22;21083;50.898;4.902;2023-04-25T03:32:40;9.20;99.90
20654;DHT22;21083;50.898;4.902;2023-04-25T03:35:08;9.20;99.90
20654;DHT22;21083;50.898;4.902;2023-04-25T03:37:35;9.20;99.90
20654;DHT22;21083;50.898;4.902;2023-04-25T03:40:04;9.20;99.90
20654;DHT22;21083;50.898;4.902;2023-04-25T03:42:31;9.10;99.90
20654;DHT22;21083;50.898;4.902;2023-04-25T03:44:58;9.10;99.90
20654;DHT22;21083;50.898;4.902;2023-04-25T03:47:25;9.10;99.90
20654;DHT22;21083;50.898;4.902;2023-04-25T03:49:52;9.10;99.90
20654;DHT22;21083;50.898;4.902;2023-04-25T03:52:19;9.10;99.90
20654;DHT22;21083;50.898;4.902;2023-04-25T03:54:46;9.00;99.90
20654;DHT22;21083;50.898;4.902;2023-04-25T03:57:14;8.90;99.90
20654;DHT22;21083;50.898;4.902;2023-04-25T03:59:41;8.80;99.90
20654;DHT22;21083;50.898;4.902;2023-04-25T04:02:08;8.80;99.90
20654;DHT22;21083;50.898;4.902;2023-04-25T04:04:35;8.90;99.90
20654;DHT22;21083;50.898;4.902;2023-04-25T04:07:02;9.00;99.90
20654;DHT22;21083;50.898;4.902;2023-04-25T04:09:30;8.90;99.90
20654;DHT22;21083;50.898;4.902;2023-04-25T04:11:57;8.90;99.90
20654;DHT22;21083;50.898;4.902;2023-04-25T04:14:25;8.90;99.90
20654;DHT22;21083;50.898;4.902;2023-04-25T04:16:52;8.90;99.90
20654;DHT22;21083;50.898;4.902;2023-04-25T04:19:19;8.90;99.90
20654;DHT22;21083;50.898;4.902;2023-04-25T04:21:46;8.80;99.90
20654;DHT22;21083;50.898;4.902;2023-04-25T04:24:13;8.80;99.90
20654;DHT22;21083;50.898;4.902;2023-04-25T04:26:40;8.80;99.90
20654;DHT22;21083;50.898;4.902;2023-04-25T04:29:10;8.80;99.90
20654;DHT22;21083;50.898;4.902;2023-04-25T04:31:38;8.80;99.90
20654;DHT22;21083;50.898;4.902;2023-04-25T04:34:05;8.80;99.90
20654;DHT22;21083;50.898;4.902;2023-04-25T04:36:32;8.80;99.90
20654;DHT22;21083;50.898;4.902;2023-04-25T04:38:59;8.80;99.90
20654;DHT22;21083;50.898;4.902;2023-04-25T04:41:27;8.80;99.90
20654;DHT22;21083;50.898;4.902;2023-04-25T04:43:54;8.80;99.90
20654;DHT22;21083;50.898;4.902;2023-04-25T04:46:21;8.80;99.90
20654;DHT22;21083;50.898;4.902;2023-04-25T04:48:51;8.70;99.90
20654;DHT22;21083;50.898;4.902;2023-04-25T04:51:19;8.80;99.90
20654;DHT22;21083;50.898;4.902;2023-04-25T04:53:46;8.70;99.90
20654;DHT22;21083;50.898;4.902;2023-04-25T04:56:13;8.70;99.90
20654;DHT22;21083;50.898;4.902;2023-04-25T04:58:40;8.80;99.90
20654;DHT22;21083;50.898;4.902;2023-04-25T05:01:07;8.80;99.90
20654;DHT22;21083;50.898;4.902;2023-04-25T05:03:34;8.80;99.90
20654;DHT22;21083;50.898;4.902;2023-04-25T05:06:02;8.80;99.90
20654;DHT22;21083;50.898;4.902;2023-04-25T05:08:29;8.80;99.90
20654;DHT22;21083;50.898;4.902;2023-04-25T05:10:56;8.80;99.90
20654;DHT22;21083;50.898;4.902;2023-04-25T05:13:23;8.80;99.90
20654;DHT22;21083;50.898;4.902;2023-04-25T05:15:50;8.80;99.90
20654;DHT22;21083;50.898;4.902;2023-04-25T05:18:17;8.80;99.90
20654;DHT22;21083;50.898;4.902;2023-04-25T05:20:44;8.80;99.90
20654;DHT22;21083;50.898;4.902;2023-04-25T05:23:13;8.80;99.90
20654;DHT22;21083;50.898;4.902;2023-04-25T05:25:40;8.80;99.90
20654;DHT22;21083;50.898;4.902;2023-04-25T05:28:07;8.90;99.90
20654;DHT22;21083;50.898;4.902;2023-04-25T05:30:34;8.90;99.90
20654;DHT22;21083;50.898;4.902;2023-04-25T05:33:01;8.90;99.90
20654;DHT22;21083;50.898;4.902;2023-04-25T05:35:28;8.90;99.90
20654;DHT22;21083;50.898;4.902;2023-04-25T05:37:55;9.00;99.90
20654;DHT22;21083;50.898;4.902;2023-04-25T05:40:24;8.90;99.90
20654;DHT22;21083;50.898;4.902;2023-04-25T05:42:51;8.90;99.90
20654;DHT22;21083;50.898;4.902;2023-04-25T05:45:18;9.00;99.90
20654;DHT22;21083;50.898;4.902;2023-04-25T05:47:44;9.00;99.90
20654;DHT22;21083;50.898;4.902;2023-04-25T05:50:11;9.00;99.90
20654;DHT22;21083;50.898;4.902;2023-04-25T05:52:39;9.00;99.90
20654;DHT22;21083;50.898;4.902;2023-04-25T05:55:06;8.90;99.90
20654;DHT22;21083;50.898;4.902;2023-04-25T05:57:34;8.90;99.90
20654;DHT22;21083;50.898;4.902;2023-04-25T06:00:02;9.00;99.90
20654;DHT22;21083;50.898;4.902;2023-04-25T06:02:34;9.10;99.90
20654;DHT22;21083;50.898;4.902;2023-04-25T06:05:01;9.00;99.90
20654;DHT22;21083;50.898;4.902;2023-04-25T06:07:29;9.10;99.90
20654;DHT22;21083;50.898;4.902;2023-04-25T06:09:56;9.10;99.90
20654;DHT22;21083;50.898;4.902;2023-04-25T06:12:23;9.00;99.90
20654;DHT22;21083;50.898;4.902;2023-04-25T06:14:52;8.90;99.90
20654;DHT22;21083;50.898;4.902;2023-04-25T06:17:19;8.80;99.90
20654;DHT22;21083;50.898;4.902;2023-04-25T06:19:46;8.70;99.90
20654;DHT22;21083;50.898;4.902;2023-04-25T06:22:13;8.80;99.90
20654;DHT22;21083;50.898;4.902;2023-04-25T06:24:41;8.90;99.90
20654;DHT22;21083;50.898;4.902;2023-04-25T06:27:07;8.90;99.90
20654;DHT22;21083;50.898;4.902;2023-04-25T06:29:34;9.00;99.90
20654;DHT22;21083;50.898;4.902;2023-04-25T06:32:03;9.10;99.90
20654;DHT22;21083;50.898;4.902;2023-04-25T06:34:30;9.10;99.90
20654;DHT22;21083;50.898;4.902;2023-04-25T06:36:57;9.00;99.90
20654;DHT22;21083;50.898;4.902;2023-04-25T06:39:24;8.80;99.90
20654;DHT22;21083;50.898;4.902;2023-04-25T06:41:51;8.80;99.90
20654;DHT22;21083;50.898;4.902;2023-04-25T06:44:19;8.80;99.90
20654;DHT22;21083;50.898;4.902;2023-04-25T06:46:46;9.00;99.90
20654;DHT22;21083;50.898;4.902;2023-04-25T06:49:15;9.20;99.90
20654;DHT22;21083;50.898;4.902;2023-04-25T06:51:42;9.40;99.90
20654;DHT22;21083;50.898;4.902;2023-04-25T06:54:09;9.40;99.90
20654;DHT22;21083;50.898;4.902;2023-04-25T06:56:36;9.50;99.90
20654;DHT22;21083;50.898;4.902;2023-04-25T06:59:03;9.40;99.90
20654;DHT22;21083;50.898;4.902;2023-04-25T07:01:30;9.30;99.90
20654;DHT22;21083;50.898;4.902;2023-04-25T07:03:57;9.50;99.90
20654;DHT22;21083;50.898;4.902;2023-04-25T07:06:25;9.40;99.90
20654;DHT22;21083;50.898;4.902;2023-04-25T07:08:53;9.40;99.90
20654;DHT22;21083;50.898;4.902;2023-04-25T07:11:21;9.50;99.90
20654;DHT22;21083;50.898;4.902;2023-04-25T07:13:48;9.60;99.90
20654;DHT22;21083;50.898;4.902;2023-04-25T07:16:16;9.70;99.90
20654;DHT22;21083;50.898;4.902;2023-04-25T07:18:43;9.90;99.90
20654;DHT22;21083;50.898;4.902;2023-04-25T07:21:10;9.80;99.90
20654;DHT22;21083;50.898;4.902;2023-04-25T07:23:38;9.60;99.90
20654;DHT22;21083;50.898;4.902;2023-04-25T07:26:06;9.60;99.90
20654;DHT22;21083;50.898;4.902;2023-04-25T07:28:33;9.60;99.90
20654;DHT22;21083;50.898;4.902;2023-04-25T07:31:00;9.70;99.90
20654;DHT22;21083;50.898;4.902;2023-04-25T07:33:27;9.90;99.90
20654;DHT22;21083;50.898;4.902;2023-04-25T07:35:55;10.00;99.90
20654;DHT22;21083;50.898;4.902;2023-04-25T07:38:22;10.10;99.90
20654;DHT22;21083;50.898;4.902;2023-04-25T07:40:50;10.10;99.90
20654;DHT22;21083;50.898;4.902;2023-04-25T07:43:17;10.10;99.90
20654;DHT22;21083;50.898;4.902;2023-04-25T07:45:44;10.30;99.90
20654;DHT22;21083;50.898;4.902;2023-04-25T07:48:15;10.40;99.90
20654;DHT22;21083;50.898;4.902;2023-04-25T07:50:42;10.50;99.90
20654;DHT22;21083;50.898;4.902;2023-04-25T07:53:09;10.50;99.90
20654;DHT22;21083;50.898;4.902;2023-04-25T07:55:36;10.60;99.90
20654;DHT22;21083;50.898;4.902;2023-04-25T07:58:07;10.70;99.90
20654;DHT22;21083;50.898;4.902;2023-04-25T08:00:34;10.80;99.90
20654;DHT22;21083;50.898;4.902;2023-04-25T08:03:01;11.00;99.90
20654;DHT22;21083;50.898;4.902;2023-04-25T08:05:29;11.00;99.90
20654;DHT22;21083;50.898;4.902;2023-04-25T08:07:56;11.20;99.90
20654;DHT22;21083;50.898;4.902;2023-04-25T08:10:23;11.40;99.90
20654;DHT22;21083;50.898;4.902;2023-04-25T08:12:50;11.50;99.90
20654;DHT22;21083;50.898;4.902;2023-04-25T08:15:18;11.50;99.90
20654;DHT22;21083;50.898;4.902;2023-04-25T08:17:45;11.60;99.90
20654;DHT22;21083;50.898;4.902;2023-04-25T08:20:12;11.50;99.90
20654;DHT22;21083;50.898;4.902;2023-04-25T08:22:39;11.40;99.90
20654;DHT22;21083;50.898;4.902;2023-04-25T08:25:07;11.30;99.90
20654;DHT22;21083;50.898;4.902;2023-04-25T08:27:34;11.30;99.90
20654;DHT22;21083;50.898;4.902;2023-04-25T08:30:01;11.20;99.90
20654;DHT22;21083;50.898;4.902;2023-04-25T08:32:30;11.20;99.90
20654;DHT22;21083;50.898;4.902;2023-04-25T08:34:57;11.10;99.90
20654;DHT22;21083;50.898;4.902;2023-04-25T08:37:24;11.10;99.90
20654;DHT22;21083;50.898;4.902;2023-04-25T08:39:51;10.90;99.90
20654;DHT22;21083;50.898;4.902;2023-04-25T08:42:19;10.50;99.90
20654;DHT22;21083;50.898;4.902;2023-04-25T08:44:48;10.40;99.90
20654;DHT22;21083;50.898;4.902;2023-04-25T08:47:15;10.50;99.90
20654;DHT22;21083;50.898;4.902;2023-04-25T08:49:45;10.60;99.90
20654;DHT22;21083;50.898;4.902;2023-04-25T08:52:13;10.40;99.90
20654;DHT22;21083;50.898;4.902;2023-04-25T08:54:42;10.40;99.90
20654;DHT22;21083;50.898;4.902;2023-04-25T08:57:10;10.70;99.90
20654;DHT22;21083;50.898;4.902;2023-04-25T08:59:39;10.70;99.90
20654;DHT22;21083;50.898;4.902;2023-04-25T09:02:11;10.80;99.90
20654;DHT22;21083;50.898;4.902;2023-04-25T09:04:40;11.00;99.90
20654;DHT22;21083;50.898;4.902;2023-04-25T09:07:08;10.80;99.90
20654;DHT22;21083;50.898;4.902;2023-04-25T09:09:36;11.10;99.90
20654;DHT22;21083;50.898;4.902;2023-04-25T09:12:03;11.50;99.90
20654;DHT22;21083;50.898;4.902;2023-04-25T09:14:30;11.80;99.90
20654;DHT22;21083;50.898;4.902;2023-04-25T09:16:59;12.10;99.90
20654;DHT22;21083;50.898;4.902;2023-04-25T09:19:27;12.30;99.90
20654;DHT22;21083;50.898;4.902;2023-04-25T09:21:55;12.60;99.90
20654;DHT22;21083;50.898;4.902;2023-04-25T09:24:32;12.50;99.90
20654;DHT22;21083;50.898;4.902;2023-04-25T09:26:59;12.60;99.90
20654;DHT22;21083;50.898;4.902;2023-04-25T09:29:30;12.40;99.90
20654;DHT22;21083;50.898;4.902;2023-04-25T09:32:11;12.60;99.90
20654;DHT22;21083;50.898;4.902;2023-04-25T09:34:39;12.50;99.90
20654;DHT22;21083;50.898;4.902;2023-04-25T09:37:08;12.60;99.90
20654;DHT22;21083;50.898;4.902;2023-04-25T09:39:37;12.60;99.90
20654;DHT22;21083;50.898;4.902;2023-04-25T09:42:04;12.30;99.90
20654;DHT22;21083;50.898;4.902;2023-04-25T09:44:31;12.20;99.90
20654;DHT22;21083;50.898;4.902;2023-04-25T09:46:58;12.10;99.90
20654;DHT22;21083;50.898;4.902;2023-04-25T09:49:26;11.70;99.90
20654;DHT22;21083;50.898;4.902;2023-04-25T09:51:56;11.60;99.90
20654;DHT22;21083;50.898;4.902;2023-04-25T09:54:24;11.40;99.90
20654;DHT22;21083;50.898;4.902;2023-04-25T09:56:53;11.30;99.90
20654;DHT22;21083;50.898;4.902;2023-04-25T09:59:21;11.20;99.90
20654;DHT22;21083;50.898;4.902;2023-04-25T10:01:49;11.10;99.90
20654;DHT22;21083;50.898;4.902;2023-04-25T10:04:19;11.10;99.90
20654;DHT22;21083;50.898;4.902;2023-04-25T10:06:49;11.00;99.90
20654;DHT22;21083;50.898;4.902;2023-04-25T10:09:16;10.80;99.90
20654;DHT22;21083;50.898;4.902;2023-04-25T10:11:46;10.80;99.90
20654;DHT22;21083;50.898;4.902;2023-04-25T10:14:16;10.90;99.90
20654;DHT22;21083;50.898;4.902;2023-04-25T10:16:43;10.90;99.90
20654;DHT22;21083;50.898;4.902;2023-04-25T10:19:11;11.00;99.90
20654;DHT22;21083;50.898;4.902;2023-04-25T10:21:46;11.30;99.90
20654;DHT22;21083;50.898;4.902;2023-04-25T10:24:15;11.60;99.90
20654;DHT22;21083;50.898;4.902;2023-04-25T10:26:42;11.90;99.90
20654;DHT22;21083;50.898;4.902;2023-04-25T10:29:09;12.10;99.90
20654;DHT22;21083;50.898;4.902;2023-04-25T10:31:45;12.50;99.90
20654;DHT22;21083;50.898;4.902;2023-04-25T10:34:13;12.90;99.90
20654;DHT22;21083;50.898;4.902;2023-04-25T10:36:40;13.40;99.90
20654;DHT22;21083;50.898;4.902;2023-04-25T10:39:07;13.90;99.90
20654;DHT22;21083;50.898;4.902;2023-04-25T10:41:46;14.40;99.90
20654;DHT22;21083;50.898;4.902;2023-04-25T10:44:14;14.00;99.90
20654;DHT22;21083;50.898;4.902;2023-04-25T10:46:44;13.50;99.90
20654;DHT22;21083;50.898;4.902;2023-04-25T10:49:28;13.70;99.90
20654;DHT22;21083;50.898;4.902;2023-04-25T10:52:12;14.30;99.90
20654;DHT22;21083;50.898;4.902;2023-04-25T10:54:42;14.90;99.90
20654;DHT22;21083;50.898;4.902;2023-04-25T10:57:28;15.30;99.90
20654;DHT22;21083;50.898;4.902;2023-04-25T10:59:59;15.10;99.90
20654;DHT22;21083;50.898;4.902;2023-04-25T11:02:28;15.60;99.90
20654;DHT22;21083;50.898;4.902;2023-04-25T11:04:55;15.60;99.90
20654;DHT22;21083;50.898;4.902;2023-04-25T11:07:33;15.60;99.90
20654;DHT22;21083;50.898;4.902;2023-04-25T11:10:03;15.40;99.90
20654;DHT22;21083;50.898;4.902;2023-04-25T11:12:31;15.30;99.90
20654;DHT22;21083;50.898;4.902;2023-04-25T11:14:59;15.30;99.90
20654;DHT22;21083;50.898;4.902;2023-04-25T11:17:28;15.70;99.90
20654;DHT22;21083;50.898;4.902;2023-04-25T11:19:56;16.30;99.90
20654;DHT22;21083;50.898;4.902;2023-04-25T11:22:23;16.70;99.90
20654;DHT22;21083;50.898;4.902;2023-04-25T11:24:53;16.30;99.90
20654;DHT22;21083;50.898;4.902;2023-04-25T11:27:21;15.20;99.90
20654;DHT22;21083;50.898;4.902;2023-04-25T11:29:50;15.00;99.90
20654;DHT22;21083;50.898;4.902;2023-04-25T11:32:17;14.80;99.90
20654;DHT22;21083;50.898;4.902;2023-04-25T11:34:47;15.10;99.90
20654;DHT22;21083;50.898;4.902;2023-04-25T11:37:14;15.60;99.90
20654;DHT22;21083;50.898;4.902;2023-04-25T11:39:45;16.00;99.90
20654;DHT22;21083;50.898;4.902;2023-04-25T11:42:12;16.30;99.90
20654;DHT22;21083;50.898;4.902;2023-04-25T11:44:40;16.30;99.90
20654;DHT22;21083;50.898;4.902;2023-04-25T11:47:07;15.90;99.90
20654;DHT22;21083;50.898;4.902;2023-04-25T11:49:35;15.30;99.90
20654;DHT22;21083;50.898;4.902;2023-04-25T11:52:06;14.50;99.90
20654;DHT22;21083;50.898;4.902;2023-04-25T11:54:35;13.70;99.90
20654;DHT22;21083;50.898;4.902;2023-04-25T11:57:03;13.30;99.90
20654;DHT22;21083;50.898;4.902;2023-04-25T11:59:30;12.90;99.90
20654;DHT22;21083;50.898;4.902;2023-04-25T12:01:57;12.80;99.90
20654;DHT22;21083;50.898;4.902;2023-04-25T12:04:30;12.90;99.90
20654;DHT22;21083;50.898;4.902;2023-04-25T12:06:57;13.00;99.90
20654;DHT22;21083;50.898;4.902;2023-04-25T12:09:31;13.00;99.90
20654;DHT22;21083;50.898;4.902;2023-04-25T12:11:59;13.20;99.90
20654;DHT22;21083;50.898;4.902;2023-04-25T12:14:29;13.20;99.90
20654;DHT22;21083;50.898;4.902;2023-04-25T12:16:58;12.90;99.90
20654;DHT22;21083;50.898;4.902;2023-04-25T12:19:26;12.70;99.90
20654;DHT22;21083;50.898;4.902;2023-04-25T12:21:53;13.10;99.90
20654;DHT22;21083;50.898;4.902;2023-04-25T12:24:22;13.40;99.90
20654;DHT22;21083;50.898;4.902;2023-04-25T12:26:53;12.90;99.90
20654;DHT22;21083;50.898;4.902;2023-04-25T12:29:22;12.90;99.90
20654;DHT22;21083;50.898;4.902;2023-04-25T12:31:50;13.20;99.90
20654;DHT22;21083;50.898;4.902;2023-04-25T12:34:18;13.50;99.90
20654;DHT22;21083;50.898;4.902;2023-04-25T12:36:45;13.80;99.90
20654;DHT22;21083;50.898;4.902;2023-04-25T12:39:16;14.70;99.90
20654;DHT22;21083;50.898;4.902;2023-04-25T12:41:43;15.70;99.90
20654;DHT22;21083;50.898;4.902;2023-04-25T12:44:13;16.40;99.90
20654;DHT22;21083;50.898;4.902;2023-04-25T12:46:40;16.90;99.90
20654;DHT22;21083;50.898;4.902;2023-04-25T12:49:08;17.00;99.90
20654;DHT22;21083;50.898;4.902;2023-04-25T12:51:35;16.70;99.90
20654;DHT22;21083;50.898;4.902;2023-04-25T12:54:04;15.70;99.90
20654;DHT22;21083;50.898;4.902;2023-04-25T12:56:31;15.60;99.90
20654;DHT22;21083;50.898;4.902;2023-04-25T12:58:58;15.50;99.90
20654;DHT22;21083;50.898;4.902;2023-04-25T13:01:26;15.30;99.90
20654;DHT22;21083;50.898;4.902;2023-04-25T13:03:53;14.60;99.90
20654;DHT22;21083;50.898;4.902;2023-04-25T13:06:22;14.50;99.90
20654;DHT22;21083;50.898;4.902;2023-04-25T13:08:49;14.20;99.90
20654;DHT22;21083;50.898;4.902;2023-04-25T13:11:16;14.00;99.90
20654;DHT22;21083;50.898;4.902;2023-04-25T13:13:43;13.80;99.90
20654;DHT22;21083;50.898;4.902;2023-04-25T13:16:10;13.90;99.90
20654;DHT22;21083;50.898;4.902;2023-04-25T13:18:40;13.80;99.90
20654;DHT22;21083;50.898;4.902;2023-04-25T13:21:09;14.00;99.90
20654;DHT22;21083;50.898;4.902;2023-04-25T13:23:36;14.20;99.90
20654;DHT22;21083;50.898;4.902;2023-04-25T13:26:03;14.30;99.90
20654;DHT22;21083;50.898;4.902;2023-04-25T13:28:31;14.10;99.90
20654;DHT22;21083;50.898;4.902;2023-04-25T13:30:57;14.10;99.90
20654;DHT22;21083;50.898;4.902;2023-04-25T13:33:25;14.20;99.90
20654;DHT22;21083;50.898;4.902;2023-04-25T13:35:53;14.90;99.90
20654;DHT22;21083;50.898;4.902;2023-04-25T13:38:22;15.70;99.90
20654;DHT22;21083;50.898;4.902;2023-04-25T13:40:50;16.50;99.90
20654;DHT22;21083;50.898;4.902;2023-04-25T13:43:18;16.60;99.90
20654;DHT22;21083;50.898;4.902;2023-04-25T13:45:46;16.70;99.90
20654;DHT22;21083;50.898;4.902;2023-04-25T13:48:13;16.70;99.90
20654;DHT22;21083;50.898;4.902;2023-04-25T13:50:40;16.90;99.90
20654;DHT22;21083;50.898;4.902;2023-04-25T13:53:08;16.90;99.90
20654;DHT22;21083;50.898;4.902;2023-04-25T13:55:36;16.10;99.90
20654;DHT22;21083;50.898;4.902;2023-04-25T13:58:04;16.10;99.90
20654;DHT22;21083;50.898;4.902;2023-04-25T14:00:35;16.00;99.90
20654;DHT22;21083;50.898;4.902;2023-04-25T14:03:03;16.10;99.90
20654;DHT22;21083;50.898;4.902;2023-04-25T14:05:33;16.30;99.90
20654;DHT22;21083;50.898;4.902;2023-04-25T14:08:04;16.40;99.90
20654;DHT22;21083;50.898;4.902;2023-04-25T14:10:33;16.80;99.90
20654;DHT22;21083;50.898;4.902;2023-04-25T14:13:01;17.00;99.90
20654;DHT22;21083;50.898;4.902;2023-04-25T14:15:29;17.80;99.90
20654;DHT22;21083;50.898;4.902;2023-04-25T14:17:56;18.30;99.90
20654;DHT22;21083;50.898;4.902;2023-04-25T14:20:23;18.40;99.90
20654;DHT22;21083;50.898;4.902;2023-04-25T14:22:50;17.60;99.90
20654;DHT22;21083;50.898;4.902;2023-04-25T14:25:17;16.90;99.90
20654;DHT22;21083;50.898;4.902;2023-04-25T14:27:45;15.90;99.90
20654;DHT22;21083;50.898;4.902;2023-04-25T14:30:15;15.90;99.90
20654;DHT22;21083;50.898;4.902;2023-04-25T14:32:42;15.90;99.90
20654;DHT22;21083;50.898;4.902;2023-04-25T14:35:10;15.90;99.90
20654;DHT22;21083;50.898;4.902;2023-04-25T14:37:37;15.40;99.90
20654;DHT22;21083;50.898;4.902;2023-04-25T14:40:05;15.00;99.90
20654;DHT22;21083;50.898;4.902;2023-04-25T14:42:34;14.60;99.90
20654;DHT22;21083;50.898;4.902;2023-04-25T14:45:03;14.50;99.90
20654;DHT22;21083;50.898;4.902;2023-04-25T14:47:30;14.60;99.90
20654;DHT22;21083;50.898;4.902;2023-04-25T14:49:57;14.80;99.90
20654;DHT22;21083;50.898;4.902;2023-04-25T14:52:24;14.80;99.90
20654;DHT22;21083;50.898;4.902;2023-04-25T14:54:52;14.70;99.90
20654;DHT22;21083;50.898;4.902;2023-04-25T14:57:19;14.60;99.90
20654;DHT22;21083;50.898;4.902;2023-04-25T14:59:46;14.70;99.90
20654;DHT22;21083;50.898;4.902;2023-04-25T15:02:14;15.10;99.90
20654;DHT22;21083;50.898;4.902;2023-04-25T15:04:41;15.50;99.90
20654;DHT22;21083;50.898;4.902;2023-04-25T15:07:08;15.80;99.90
20654;DHT22;21083;50.898;4.902;2023-04-25T15:09:35;16.10;99.90
20654;DHT22;21083;50.898;4.902;2023-04-25T15:12:03;16.00;99.90
20654;DHT22;21083;50.898;4.902;2023-04-25T15:14:30;16.20;99.90
20654;DHT22;21083;50.898;4.902;2023-04-25T15:16:56;16.70;99.90
20654;DHT22;21083;50.898;4.902;2023-04-25T15:19:25;16.90;99.90
20654;DHT22;21083;50.898;4.902;2023-04-25T15:21:52;17.00;99.90
20654;DHT22;21083;50.898;4.902;2023-04-25T15:24:19;17.00;99.90
20654;DHT22;21083;50.898;4.902;2023-04-25T15:26:47;16.70;99.90
20654;DHT22;21083;50.898;4.902;2023-04-25T15:29:14;16.80;99.90
20654;DHT22;21083;50.898;4.902;2023-04-25T15:31:41;16.10;99.90
20654;DHT22;21083;50.898;4.902;2023-04-25T15:34:08;15.90;99.90
20654;DHT22;21083;50.898;4.902;2023-04-25T15:36:36;15.60;99.90
20654;DHT22;21083;50.898;4.902;2023-04-25T15:39:03;15.50;99.90
20654;DHT22;21083;50.898;4.902;2023-04-25T15:41:30;15.70;99.90